Honghai — XUBU8 — position and weather

sailwx.info

Track history (hours):
 
Tides and Currents Weather Stations Pressure Air Temp Water Temp Dewpoint Dewpoint Depression Visibility Wind Speed Wind Dir Waves Ship Positions

Honghai

Last reported at 2016-Aug-10 12:24 UTC. Time now 2016-Dec-10 14:46 UTC.
Position N 35°11' E 139°45'.
Warning: this ship's position is months out of date.

Length 72 m; draft 4 m.

Type: Cargo ship. MMSI: 515501000.

Date/timePositionNaut miles runAvg speedWind from/ knotsBaromVisibWave heightAir tempDewpointWater temp
2016-Aug-10 12:24N 35°11' E 139°45'7 8.4
2016-Aug-10 11:33N 35°18' E 139°44'8 8.0
2016-Aug-10 10:33N 35°26' E 139°46'9 9.5
2016-Aug-10 09:33N 35°32' E 139°55'8 8.3
2016-Aug-10 08:33N 35°40' E 139°59'1 0.8
2016-Aug-10 07:30N 35°41' E 139°58'0 0.0
2016-Aug-10 06:33N 35°41' E 139°58'0 0.0
2016-Aug-10 05:33N 35°41' E 139°58'0 0.0
2016-Aug-10 04:30N 35°41' E 139°58'0 0.0
2016-Aug-10 03:33N 35°41' E 139°58'0 0.0
2016-Aug-10 02:33N 35°41' E 139°58'0 0.0
2016-Aug-10 01:30N 35°41' E 139°58'0 0.0
2016-Aug-10 00:30N 35°41' E 139°58'0 0.0
2016-Aug-09 23:33N 35°41' E 139°58'0 0.0
2016-Aug-09 22:33N 35°41' E 139°58'0 0.0
2016-Aug-09 21:33N 35°41' E 139°58'0 0.0
2016-Aug-09 20:33N 35°41' E 139°58'0 0.0
2016-Aug-09 19:30N 35°41' E 139°58'0 0.0
2016-Aug-09 18:33N 35°41' E 139°58'0 0.0
2016-Aug-09 17:33N 35°41' E 139°58'0 0.0
2016-Aug-09 16:33N 35°41' E 139°58'0 0.0
2016-Aug-09 15:30N 35°41' E 139°58'0 0.0
2016-Aug-09 14:33N 35°41' E 139°58'0 0.0
2016-Aug-09 13:33N 35°41' E 139°58'0 0.0
2016-Aug-09 12:33N 35°41' E 139°58'0 0.0
2016-Aug-09 11:30N 35°41' E 139°58'0 0.0
2016-Aug-09 10:33N 35°41' E 139°58'0 0.0
2016-Aug-09 09:30N 35°41' E 139°58'0 0.0
2016-Aug-09 08:33N 35°41' E 139°58'0 0.0
2016-Aug-09 07:32N 35°41' E 139°58'0 0.0
2016-Aug-09 04:32N 35°41' E 139°58'0 0.0
2016-Aug-09 03:29N 35°41' E 139°58'0 0.0
2016-Aug-09 02:32N 35°41' E 139°58'0 0.0
2016-Aug-09 01:32N 35°41' E 139°58'0 0.0
2016-Aug-09 00:32N 35°41' E 139°58'0 0.0
2016-Aug-08 23:32N 35°41' E 139°58'0 0.0
2016-Aug-08 22:32N 35°41' E 139°58'0 0.0
2016-Aug-08 21:33N 35°41' E 139°58'5 4.9
2016-Aug-08 20:33N 35°36' E 139°57'0 0.0
2016-Aug-08 19:33N 35°36' E 139°57'0 0.0
2016-Aug-08 18:33N 35°36' E 139°57'0 0.0
2016-Aug-08 17:12N 35°36' E 139°57'0 0.0
2016-Aug-08 16:30N 35°36' E 139°57'0 0.1
2016-Aug-08 15:30N 35°36' E 139°57'0 0.0
2016-Aug-08 14:24N 35°36' E 139°57'0 0.0
2016-Aug-08 13:18N 35°36' E 139°57'0 0.0
2016-Aug-08 12:27N 35°36' E 139°57'0 0.0
2016-Aug-08 11:30N 35°36' E 139°57'0 0.0
2016-Aug-08 10:33N 35°36' E 139°57'0 0.0
2016-Aug-08 09:27N 35°36' E 139°57'0 0.0
2016-Aug-08 08:30N 35°36' E 139°57'0 0.0
2016-Aug-08 07:24N 35°36' E 139°57'0 0.0
2016-Aug-08 06:30N 35°36' E 139°57'0 0.0
2016-Aug-08 05:24N 35°36' E 139°57'0 0.0
2016-Aug-08 04:24N 35°36' E 139°57'0 0.0
2016-Aug-08 03:24N 35°36' E 139°57'0 0.1
2016-Aug-08 02:30N 35°36' E 139°57'0 0.0
2016-Aug-08 01:18N 35°36' E 139°57'0 0.1
2016-Aug-08 00:30N 35°36' E 139°57'0 0.0
2016-Aug-07 23:18N 35°36' E 139°57'0 0.0
2016-Aug-07 22:30N 35°36' E 139°57'0 0.0
2016-Aug-07 21:24N 35°36' E 139°57'0 0.0
2016-Aug-07 20:24N 35°36' E 139°57'0 0.0
2016-Aug-07 19:24N 35°36' E 139°57'0 0.0
2016-Aug-07 18:18N 35°36' E 139°57'0 0.0
2016-Aug-07 17:18N 35°36' E 139°57'0 0.1
2016-Aug-07 16:30N 35°36' E 139°57'0 0.0
2016-Aug-07 15:21N 35°36' E 139°57'0 0.0
2016-Aug-07 14:24N 35°36' E 139°57'0 0.0
2016-Aug-07 13:18N 35°36' E 139°57'0 0.0
2016-Aug-07 12:21N 35°36' E 139°57'0 0.0
2016-Aug-07 11:33N 35°36' E 139°57'0 0.0
2016-Aug-07 10:29N 35°36' E 139°57'0 0.0
2016-Aug-07 09:23N 35°36' E 139°57'0 0.0
2016-Aug-07 08:29N 35°36' E 139°57'0 0.0
2016-Aug-07 07:23N 35°36' E 139°57'0 0.0
2016-Aug-07 06:29N 35°36' E 139°57'0 0.0
2016-Aug-07 04:29N 35°36' E 139°57'0 0.0
2016-Aug-07 03:29N 35°36' E 139°57'0 0.0
2016-Aug-07 02:29N 35°36' E 139°57'0 0.0
2016-Aug-07 01:29N 35°36' E 139°57'0 0.0
2016-Aug-07 00:29N 35°36' E 139°57'0 0.0
2016-Aug-06 23:17N 35°36' E 139°57'0 0.0
2016-Aug-06 22:23N 35°36' E 139°57'0 0.0
2016-Aug-06 21:23N 35°36' E 139°57'0 0.0
2016-Aug-06 20:29N 35°36' E 139°57'0 0.0
2016-Aug-06 19:29N 35°36' E 139°57'0 0.0
2016-Aug-06 18:29N 35°36' E 139°57'0 0.0
2016-Aug-06 17:23N 35°36' E 139°57'0 0.0
2016-Aug-06 16:29N 35°36' E 139°57'0 0.0
2016-Aug-06 15:23N 35°36' E 139°57'4 4.3
2016-Aug-06 14:33N 35°33' E 139°56'1010.1
2016-Aug-06 13:33N 35°25' E 139°47'9 8.6
2016-Aug-06 12:32N 35°16' E 139°46'  
Track history (hours):
 
Tides and Currents Weather Stations Pressure Air Temp Water Temp Dewpoint Dewpoint Depression Visibility Wind Speed Wind Dir Waves Ship Positions

Honghai

Last reported at 2016-Aug-10 12:24 UTC. Time now 2016-Dec-10 14:46 UTC.
Position N 35°11' E 139°45'.
Warning: this ship's position is months out of date.

Length 72 m; draft 4 m.

Type: Cargo ship. MMSI: 515501000.

Date/timePositionNaut miles runAvg speedWind from/ knotsBaromVisibWave heightAir tempDewpointWater temp
2016-Aug-10 12:24N 35°11' E 139°45'7 8.4
2016-Aug-10 11:33N 35°18' E 139°44'8 8.0
2016-Aug-10 10:33N 35°26' E 139°46'9 9.5
2016-Aug-10 09:33N 35°32' E 139°55'8 8.3
2016-Aug-10 08:33N 35°40' E 139°59'1 0.8
2016-Aug-10 07:30N 35°41' E 139°58'0 0.0
2016-Aug-10 06:33N 35°41' E 139°58'0 0.0
2016-Aug-10 05:33N 35°41' E 139°58'0 0.0
2016-Aug-10 04:30N 35°41' E 139°58'0 0.0
2016-Aug-10 03:33N 35°41' E 139°58'0 0.0
2016-Aug-10 02:33N 35°41' E 139°58'0 0.0
2016-Aug-10 01:30N 35°41' E 139°58'0 0.0
2016-Aug-10 00:30N 35°41' E 139°58'0 0.0
2016-Aug-09 23:33N 35°41' E 139°58'0 0.0
2016-Aug-09 22:33N 35°41' E 139°58'0 0.0
2016-Aug-09 21:33N 35°41' E 139°58'0 0.0
2016-Aug-09 20:33N 35°41' E 139°58'0 0.0
2016-Aug-09 19:30N 35°41' E 139°58'0 0.0
2016-Aug-09 18:33N 35°41' E 139°58'0 0.0
2016-Aug-09 17:33N 35°41' E 139°58'0 0.0
2016-Aug-09 16:33N 35°41' E 139°58'0 0.0
2016-Aug-09 15:30N 35°41' E 139°58'0 0.0
2016-Aug-09 14:33N 35°41' E 139°58'0 0.0
2016-Aug-09 13:33N 35°41' E 139°58'0 0.0
2016-Aug-09 12:33N 35°41' E 139°58'0 0.0
2016-Aug-09 11:30N 35°41' E 139°58'0 0.0
2016-Aug-09 10:33N 35°41' E 139°58'0 0.0
2016-Aug-09 09:30N 35°41' E 139°58'0 0.0
2016-Aug-09 08:33N 35°41' E 139°58'0 0.0
2016-Aug-09 07:32N 35°41' E 139°58'0 0.0
2016-Aug-09 04:32N 35°41' E 139°58'0 0.0
2016-Aug-09 03:29N 35°41' E 139°58'0 0.0
2016-Aug-09 02:32N 35°41' E 139°58'0 0.0
2016-Aug-09 01:32N 35°41' E 139°58'0 0.0
2016-Aug-09 00:32N 35°41' E 139°58'0 0.0
2016-Aug-08 23:32N 35°41' E 139°58'0 0.0
2016-Aug-08 22:32N 35°41' E 139°58'0 0.0
2016-Aug-08 21:33N 35°41' E 139°58'5 4.9
2016-Aug-08 20:33N 35°36' E 139°57'0 0.0
2016-Aug-08 19:33N 35°36' E 139°57'0 0.0
2016-Aug-08 18:33N 35°36' E 139°57'0 0.0
2016-Aug-08 17:12N 35°36' E 139°57'0 0.0
2016-Aug-08 16:30N 35°36' E 139°57'0 0.1
2016-Aug-08 15:30N 35°36' E 139°57'0 0.0
2016-Aug-08 14:24N 35°36' E 139°57'0 0.0
2016-Aug-08 13:18N 35°36' E 139°57'0 0.0
2016-Aug-08 12:27N 35°36' E 139°57'0 0.0
2016-Aug-08 11:30N 35°36' E 139°57'0 0.0
2016-Aug-08 10:33N 35°36' E 139°57'0 0.0
2016-Aug-08 09:27N 35°36' E 139°57'0 0.0
2016-Aug-08 08:30N 35°36' E 139°57'0 0.0
2016-Aug-08 07:24N 35°36' E 139°57'0 0.0
2016-Aug-08 06:30N 35°36' E 139°57'0 0.0
2016-Aug-08 05:24N 35°36' E 139°57'0 0.0
2016-Aug-08 04:24N 35°36' E 139°57'0 0.0
2016-Aug-08 03:24N 35°36' E 139°57'0 0.1
2016-Aug-08 02:30N 35°36' E 139°57'0 0.0
2016-Aug-08 01:18N 35°36' E 139°57'0 0.1
2016-Aug-08 00:30N 35°36' E 139°57'0 0.0
2016-Aug-07 23:18N 35°36' E 139°57'0 0.0
2016-Aug-07 22:30N 35°36' E 139°57'0 0.0
2016-Aug-07 21:24N 35°36' E 139°57'0 0.0
2016-Aug-07 20:24N 35°36' E 139°57'0 0.0
2016-Aug-07 19:24N 35°36' E 139°57'0 0.0
2016-Aug-07 18:18N 35°36' E 139°57'0 0.0
2016-Aug-07 17:18N 35°36' E 139°57'0 0.1
2016-Aug-07 16:30N 35°36' E 139°57'0 0.0
2016-Aug-07 15:21N 35°36' E 139°57'0 0.0
2016-Aug-07 14:24N 35°36' E 139°57'0 0.0
2016-Aug-07 13:18N 35°36' E 139°57'0 0.0
2016-Aug-07 12:21N 35°36' E 139°57'0 0.0
2016-Aug-07 11:33N 35°36' E 139°57'0 0.0
2016-Aug-07 10:29N 35°36' E 139°57'0 0.0
2016-Aug-07 09:23N 35°36' E 139°57'0 0.0
2016-Aug-07 08:29N 35°36' E 139°57'0 0.0
2016-Aug-07 07:23N 35°36' E 139°57'0 0.0
2016-Aug-07 06:29N 35°36' E 139°57'0 0.0
2016-Aug-07 04:29N 35°36' E 139°57'0 0.0
2016-Aug-07 03:29N 35°36' E 139°57'0 0.0
2016-Aug-07 02:29N 35°36' E 139°57'0 0.0
2016-Aug-07 01:29N 35°36' E 139°57'0 0.0
2016-Aug-07 00:29N 35°36' E 139°57'0 0.0
2016-Aug-06 23:17N 35°36' E 139°57'0 0.0
2016-Aug-06 22:23N 35°36' E 139°57'0 0.0
2016-Aug-06 21:23N 35°36' E 139°57'0 0.0
2016-Aug-06 20:29N 35°36' E 139°57'0 0.0
2016-Aug-06 19:29N 35°36' E 139°57'0 0.0
2016-Aug-06 18:29N 35°36' E 139°57'0 0.0
2016-Aug-06 17:23N 35°36' E 139°57'0 0.0
2016-Aug-06 16:29N 35°36' E 139°57'0 0.0
2016-Aug-06 15:23N 35°36' E 139°57'4 4.3
2016-Aug-06 14:33N 35°33' E 139°56'1010.1
2016-Aug-06 13:33N 35°25' E 139°47'9 8.6
2016-Aug-06 12:32N 35°16' E 139°46'  

Dump ship's entire track history